Time;durP1;ratioP1;P1;durP2;ratioP2;P2;SDS_P1;SDS_P2;PMS_P1;PMS_P2;Temp;Humidity;BMP_temperature;BMP_pressure;BME280_temperature;BME280_humidity;BME280_pressure;Samples;Min_cycle;Max_cycle;Signal;HPM_P1;HPM_P2
2021/06/20 00:00:55;;;;;;;11.52;7.43;;;26.30;70.00;;;;;;5071750;28;20466;-75
2021/06/20 00:03:21;;;;;;;12.57;6.70;;;26.30;70.00;;;;;;5070497;28;20033;-74
2021/06/20 00:05:54;;;;;;;9.30;6.85;;;26.30;70.00;;;;;;5071089;28;20032;-74
2021/06/20 00:08:20;;;;;;;10.38;7.07;;;26.20;70.60;;;;;;5069934;28;20477;-74
2021/06/20 00:10:49;;;;;;;12.63;7.30;;;26.20;70.00;;;;;;5070806;28;20443;-75
2021/06/20 00:13:19;;;;;;;10.57;7.45;;;26.20;70.20;;;;;;5070390;28;20024;-74
2021/06/20 00:15:47;;;;;;;10.43;6.82;;;26.10;70.40;;;;;;5071162;28;20037;-74
2021/06/20 00:18:14;;;;;;;9.85;6.50;;;26.10;70.50;;;;;;5070347;28;20485;-74
2021/06/20 00:20:43;;;;;;;9.18;7.03;;;26.10;70.40;;;;;;5070880;28;20082;-74
2021/06/20 00:23:09;;;;;;;10.90;7.10;;;26.00;70.50;;;;;;5070613;28;20024;-74
2021/06/20 00:25:35;;;;;;;11.20;7.30;;;26.00;70.70;;;;;;5069535;28;20644;-74
2021/06/20 00:28:01;;;;;;;12.13;7.35;;;26.00;71.00;;;;;;5070631;28;20068;-74
2021/06/20 00:30:29;;;;;;;13.55;7.90;;;26.00;71.00;;;;;;5070086;28;20047;-74
2021/06/20 00:32:55;;;;;;;9.82;7.53;;;26.00;71.90;;;;;;5070800;28;20036;-74
2021/06/20 00:35:21;;;;;;;12.02;7.82;;;26.10;72.00;;;;;;5069940;28;20677;-74
2021/06/20 00:37:48;;;;;;;12.30;7.30;;;26.00;72.30;;;;;;5070236;28;20055;-74
2021/06/20 00:40:15;;;;;;;10.73;7.50;;;25.90;72.30;;;;;;5070796;28;20099;-74
2021/06/20 00:42:41;;;;;;;8.43;7.32;;;25.90;72.80;;;;;;5070750;28;20035;-74
2021/06/20 00:45:09;;;;;;;10.00;7.40;;;25.80;73.10;;;;;;5070809;28;20025;-74
2021/06/20 00:47:34;;;;;;;10.70;7.40;;;25.80;73.00;;;;;;5069675;28;20086;-75
2021/06/20 00:50:00;;;;;;;10.82;7.22;;;25.80;72.60;;;;;;5070791;28;20032;-75
2021/06/20 00:52:26;;;;;;;14.27;7.20;;;25.70;72.70;;;;;;5069876;28;20033;-75
2021/06/20 00:54:52;;;;;;;11.90;6.95;;;25.70;72.70;;;;;;5070912;28;20025;-75
2021/06/20 00:57:20;;;;;;;16.15;7.50;;;25.70;72.00;;;;;;5069876;28;20031;-74
2021/06/20 00:59:47;;;;;;;20.38;7.78;;;25.70;71.50;;;;;;5052724;28;20927;-74
2021/06/20 01:02:14;;;;;;;18.15;7.38;;;25.80;71.20;;;;;;5071351;28;20020;-74
2021/06/20 01:04:41;;;;;;;28.13;7.55;;;25.90;70.90;;;;;;5070881;28;20037;-75
2021/06/20 01:07:07;;;;;;;30.40;9.18;;;25.90;70.30;;;;;;5074267;28;20024;-74
2021/06/20 01:09:32;;;;;;;29.38;8.35;;;26.10;69.40;;;;;;5072963;28;20342;-75
2021/06/20 01:11:59;;;;;;;30.65;8.82;;;26.20;68.60;;;;;;5074187;28;20034;-75
2021/06/20 01:14:25;;;;;;;39.78;9.45;;;26.20;68.20;;;;;;5073983;28;20035;-75
2021/06/20 01:16:52;;;;;;;31.10;8.52;;;26.30;67.70;;;;;;5074050;28;20103;-75
2021/06/20 01:19:19;;;;;;;35.50;9.15;;;26.40;67.40;;;;;;5072765;28;20028;-74
2021/06/20 01:21:46;;;;;;;37.83;10.35;;;26.40;67.10;;;;;;5074280;28;20037;-75
2021/06/20 01:24:12;;;;;;;40.47;9.48;;;26.40;66.90;;;;;;5073477;28;20044;-75
2021/06/20 01:26:38;;;;;;;42.67;10.23;;;26.50;66.60;;;;;;5073260;28;20028;-75
2021/06/20 01:29:08;;;;;;;42.70;9.02;;;26.60;66.40;;;;;;5073632;28;20048;-76
2021/06/20 01:31:35;;;;;;;50.83;10.07;;;26.60;66.20;;;;;;5073308;28;20035;-75
2021/06/20 01:34:02;;;;;;;53.38;10.55;;;26.60;66.10;;;;;;5073702;28;20089;-75
2021/06/20 01:36:28;;;;;;;44.17;9.77;;;26.60;66.10;;;;;;5072891;28;20020;-75
2021/06/20 01:38:54;;;;;;;36.97;9.40;;;26.60;65.80;;;;;;5074053;28;20029;-77
2021/06/20 01:41:20;;;;;;;39.90;9.45;;;26.70;65.90;;;;;;5072522;28;20465;-73
2021/06/20 01:43:45;;;;;;;44.58;9.88;;;26.60;65.80;;;;;;5073625;28;20040;-73
2021/06/20 01:46:11;;;;;;;52.25;8.77;;;26.60;66.00;;;;;;5073842;28;20028;-74
2021/06/20 01:48:37;;;;;;;43.17;10.55;;;26.60;66.20;;;;;;5072535;28;20033;-74
2021/06/20 01:51:09;;;;;;;29.38;7.93;;;26.50;66.20;;;;;;5073555;28;20107;-75
2021/06/20 01:53:35;;;;;;;37.03;8.82;;;26.50;66.30;;;;;;5072576;28;20048;-75
2021/06/20 01:56:01;;;;;;;34.63;8.32;;;26.40;66.50;;;;;;5073664;28;20081;-75
2021/06/20 01:58:27;;;;;;;37.38;8.43;;;26.40;66.60;;;;;;5054937;28;20457;-74
2021/06/20 02:00:53;;;;;;;38.13;8.43;;;26.40;66.70;;;;;;5073470;28;20381;-75
2021/06/20 02:03:23;;;;;;;45.88;9.65;;;26.30;66.80;;;;;;5073195;28;20029;-74
2021/06/20 02:05:49;;;;;;;43.70;9.18;;;26.20;66.90;;;;;;5073621;28;20029;-75
2021/06/20 02:08:18;;;;;;;45.53;9.15;;;26.20;67.00;;;;;;5061698;28;20540;-75
2021/06/20 02:10:48;;;;;;;39.78;8.80;;;26.20;67.00;;;;;;5073190;28;20032;-75
2021/06/20 02:13:14;;;;;;;;;;;26.10;67.10;;;;;;5073763;28;20033;-75
2021/06/20 02:15:40;;;;;;;37.10;8.90;;;26.10;67.10;;;;;;5071495;28;19916;-75
2021/06/20 02:18:06;;;;;;;39.25;7.90;;;26.10;67.40;;;;;;5072788;28;20028;-74
2021/06/20 02:20:32;;;;;;;39.13;8.45;;;26.00;67.40;;;;;;5071674;28;20131;-74
2021/06/20 02:22:58;;;;;;;40.30;9.55;;;26.00;67.60;;;;;;5073146;28;21462;-74
2021/06/20 02:25:24;;;;;;;32.60;8.45;;;25.90;67.80;;;;;;5071934;28;20025;-74
2021/06/20 02:27:53;;;;;;;38.67;9.23;;;25.90;68.00;;;;;;5072586;28;20068;-74
2021/06/20 02:30:21;;;;;;;37.95;9.82;;;25.90;68.20;;;;;;5072058;28;20051;-74
2021/06/20 02:32:47;;;;;;;43.20;9.18;;;25.90;68.50;;;;;;5072825;28;20035;-75
2021/06/20 02:35:14;;;;;;;38.90;9.23;;;25.80;68.50;;;;;;5054625;28;20028;-74
2021/06/20 02:37:42;;;;;;;34.15;9.07;;;25.80;68.70;;;;;;5071882;28;20116;-74
2021/06/20 02:40:09;;;;;;;30.95;8.13;;;25.70;69.00;;;;;;5072711;28;20029;-74
2021/06/20 02:42:35;;;;;;;34.15;9.38;;;25.70;69.20;;;;;;5071735;28;20025;-75
2021/06/20 02:45:05;;;;;;;32.65;8.73;;;25.70;69.40;;;;;;5072427;28;20469;-74
2021/06/20 02:47:31;;;;;;;39.92;9.10;;;25.60;69.60;;;;;;5071723;28;20045;-74
2021/06/20 02:49:57;;;;;;;32.38;9.15;;;25.60;69.90;;;;;;5072583;28;20171;-77
2021/06/20 02:52:23;;;;;;;41.20;7.68;;;25.50;70.10;;;;;;5071985;28;20036;-75
2021/06/20 02:54:49;;;;;;;36.65;9.20;;;25.50;70.30;;;;;;5071950;28;20409;-74
2021/06/20 02:57:17;;;;;;;37.42;8.90;;;25.50;70.50;;;;;;5072303;28;20081;-75
2021/06/20 02:59:42;;;;;;;31.73;8.02;;;25.40;70.70;;;;;;5071263;28;20053;-74
2021/06/20 03:02:08;;;;;;;33.13;8.55;;;25.40;71.00;;;;;;5054143;28;20052;-75
2021/06/20 03:04:34;;;;;;;40.13;9.10;;;25.40;71.40;;;;;;5071413;28;20086;-75
2021/06/20 03:06:59;;;;;;;32.53;8.38;;;25.40;71.20;;;;;;5069283;28;20482;-75
2021/06/20 03:09:25;;;;;;;45.63;8.40;;;25.30;71.70;;;;;;5070461;28;20028;-74
2021/06/20 03:11:51;;;;;;;41.05;9.00;;;25.30;71.60;;;;;;5071766;28;20043;-74
2021/06/20 03:14:16;;;;;;;29.88;8.98;;;25.30;71.70;;;;;;5071842;28;20024;-75
2021/06/20 03:16:44;;;;;;;30.67;8.50;;;25.20;72.40;;;;;;5070801;28;20469;-74
2021/06/20 03:19:11;;;;;;;30.65;8.35;;;25.10;73.20;;;;;;5071667;28;20039;-74
2021/06/20 03:21:36;;;;;;;37.08;9.02;;;25.10;74.10;;;;;;5070829;28;20478;-74
2021/06/20 03:24:03;;;;;;;34.33;9.20;;;25.10;74.80;;;;;;5071945;28;20029;-74
2021/06/20 03:26:29;;;;;;;28.35;9.07;;;25.10;75.40;;;;;;5070542;28;20086;-75
2021/06/20 03:28:56;;;;;;;32.90;8.32;;;25.00;76.10;;;;;;5071040;28;20044;-74
2021/06/20 03:31:22;;;;;;;34.78;9.25;;;24.90;77.20;;;;;;5071048;28;20036;-74
2021/06/20 03:33:47;;;;;;;36.85;9.52;;;24.90;77.80;;;;;;5071724;28;20381;-74
2021/06/20 03:36:13;;;;;;;34.35;9.02;;;24.80;78.60;;;;;;5071581;28;20060;-74
2021/06/20 03:38:40;;;;;;;34.25;9.30;;;24.80;79.20;;;;;;5070951;28;20616;-75
2021/06/20 03:41:09;;;;;;;29.17;8.85;;;24.70;79.90;;;;;;5072150;28;20036;-75
2021/06/20 03:43:35;;;;;;;25.23;8.15;;;24.60;80.20;;;;;;5072002;28;20416;-75
2021/06/20 03:46:00;;;;;;;28.50;7.97;;;24.50;81.20;;;;;;5054612;28;20029;-76
2021/06/20 03:48:26;;;;;;;24.27;8.07;;;24.50;82.00;;;;;;5071667;28;20115;-75
2021/06/20 03:50:52;;;;;;;20.92;7.22;;;24.40;82.40;;;;;;5073025;28;20050;-76
2021/06/20 03:53:17;;;;;;;20.38;7.25;;;24.40;83.20;;;;;;5073782;28;20051;-76
2021/06/20 03:55:43;;;;;;;31.85;8.93;;;24.40;83.90;;;;;;5076844;28;20424;-75
2021/06/20 03:58:09;;;;;;;21.83;8.05;;;24.40;84.00;;;;;;5074992;28;20031;-75
2021/06/20 04:00:36;;;;;;;19.92;7.88;;;24.30;84.40;;;;;;5070008;28;20103;-75
2021/06/20 04:03:03;;;;;;;27.52;7.65;;;24.30;85.10;;;;;;5071436;28;20116;-75
2021/06/20 04:05:29;;;;;;;23.80;8.75;;;24.20;86.20;;;;;;5070185;28;20024;-75
2021/06/20 04:07:55;;;;;;;31.45;9.38;;;24.20;86.50;;;;;;5061864;28;20086;-76
2021/06/20 04:10:21;;;;;;;22.48;8.18;;;24.20;86.30;;;;;;5070906;28;20397;-75
2021/06/20 04:12:47;;;;;;;29.50;9.00;;;24.20;86.40;;;;;;5071361;28;20031;-76
2021/06/20 04:15:13;;;;;;;37.33;9.05;;;24.20;86.80;;;;;;5070589;28;20033;-75
2021/06/20 04:17:38;;;;;;;35.28;8.45;;;24.20;87.60;;;;;;5070401;28;20373;-76
2021/06/20 04:20:10;;;;;;;31.45;8.95;;;24.20;86.50;;;;;;5053251;28;20138;-76
2021/06/20 04:22:36;;;;;;;30.17;10.10;;;24.20;86.90;;;;;;5070364;28;20025;-75
2021/06/20 04:25:02;;;;;;;29.23;8.68;;;24.20;88.20;;;;;;5053273;28;20362;-76
2021/06/20 04:27:27;;;;;;;28.15;9.02;;;24.20;88.20;;;;;;5070025;28;20086;-75
2021/06/20 04:29:53;;;;;;;29.88;9.00;;;24.10;88.00;;;;;;5070860;28;20033;-76
2021/06/20 04:32:19;;;;;;;32.10;8.93;;;24.10;89.10;;;;;;5071282;28;20025;-76
2021/06/20 04:34:44;;;;;;;19.17;7.13;;;24.10;89.00;;;;;;5070520;28;20035;-76
2021/06/20 04:37:10;;;;;;;28.83;7.97;;;24.10;88.20;;;;;;5052674;28;20112;-74
2021/06/20 04:39:35;;;;;;;33.30;9.35;;;24.10;87.90;;;;;;5071843;28;20403;-74
2021/06/20 04:42:02;;;;;;;29.20;8.10;;;24.10;87.60;;;;;;5074823;28;20078;-73
2021/06/20 04:44:43;;;;;;;24.98;7.63;;;24.10;87.50;;;;;;5072870;28;20501;-75
2021/06/20 04:47:13;;;;;;;17.85;6.75;;;24.10;89.00;;;;;;5056881;28;21707;-76
2021/06/20 04:49:39;;;;;;;19.50;7.15;;;24.10;90.10;;;;;;5073887;28;20448;-75
2021/06/20 04:52:10;;;;;;;20.48;7.63;;;24.10;90.50;;;;;;5074593;28;20112;-75
2021/06/20 04:54:48;;;;;;;25.13;7.45;;;24.10;90.70;;;;;;5073908;28;20119;-76
2021/06/20 04:57:20;;;;;;;36.40;8.13;;;24.20;91.10;;;;;;5074843;28;20060;-75
2021/06/20 04:59:46;;;;;;;29.80;9.27;;;24.20;91.50;;;;;;5073837;28;20107;-76
2021/06/20 05:02:12;;;;;;;20.63;7.53;;;24.20;91.60;;;;;;5074668;28;20115;-76
2021/06/20 05:04:38;;;;;;;33.70;8.55;;;24.30;91.60;;;;;;5073932;28;20432;-76
2021/06/20 05:07:04;;;;;;;22.25;7.72;;;24.30;91.30;;;;;;5074581;28;20116;-76
2021/06/20 05:09:30;;;;;;;26.98;7.85;;;24.40;91.10;;;;;;5074085;28;20111;-76
2021/06/20 05:11:55;;;;;;;22.35;7.07;;;24.40;91.00;;;;;;5076763;28;20036;-76
2021/06/20 05:14:21;;;;;;;18.75;6.50;;;24.40;90.80;;;;;;5074380;28;20056;-76
2021/06/20 05:16:47;;;;;;;30.65;7.90;;;24.50;90.50;;;;;;5073172;28;20526;-76
2021/06/20 05:19:12;;;;;;;23.75;6.85;;;24.60;90.10;;;;;;5072976;28;20124;-76
2021/06/20 05:21:38;;;;;;;29.08;7.93;;;24.70;89.60;;;;;;5072492;28;20037;-76
2021/06/20 05:24:05;;;;;;;18.67;7.43;;;24.70;88.70;;;;;;5073372;28;20041;-75
2021/06/20 05:26:30;;;;;;;23.33;7.35;;;24.60;88.70;;;;;;5073450;28;20029;-75
2021/06/20 05:28:56;;;;;;;24.48;7.05;;;24.50;88.60;;;;;;5074030;28;20138;-75
2021/06/20 05:31:22;;;;;;;19.45;6.40;;;24.50;87.30;;;;;;5074228;28;20028;-75
2021/06/20 05:33:48;;;;;;;21.10;6.43;;;24.50;85.80;;;;;;5073464;28;20470;-75
2021/06/20 05:36:13;;;;;;;19.65;5.47;;;24.60;83.90;;;;;;5073999;28;20028;-76
2021/06/20 05:38:39;;;;;;;18.77;4.93;;;24.70;82.80;;;;;;5072941;28;20036;-83
2021/06/20 05:41:05;;;;;;;15.95;4.88;;;24.70;82.30;;;;;;5073776;28;20100;-85
2021/06/20 05:43:31;;;;;;;18.15;4.93;;;24.70;81.90;;;;;;5072953;28;20103;-85
2021/06/20 05:45:57;;;;;;;22.95;5.85;;;24.80;81.70;;;;;;5074427;28;20107;-85
2021/06/20 05:48:22;;;;;;;17.40;4.75;;;24.90;81.40;;;;;;5056177;28;20032;-85
2021/06/20 05:50:48;;;;;;;15.18;4.70;;;24.90;81.10;;;;;;5071961;28;20102;-80
2021/06/20 05:53:14;;;;;;;16.30;5.15;;;24.90;81.60;;;;;;5073310;28;20462;-79
2021/06/20 05:55:40;;;;;;;14.65;5.00;;;25.00;80.10;;;;;;5072821;28;20036;-79
2021/06/20 05:58:05;;;;;;;17.83;4.50;;;25.00;78.60;;;;;;5073590;28;20032;-80
2021/06/20 06:00:31;;;;;;;11.48;4.40;;;25.10;77.70;;;;;;5073609;28;20440;-73
2021/06/20 06:02:58;;;;;;;12.60;3.90;;;25.20;77.50;;;;;;5074695;28;20371;-77
2021/06/20 06:05:24;;;;;;;17.50;4.45;;;25.10;76.80;;;;;;5076573;28;20028;-74
2021/06/20 06:07:50;;;;;;;12.93;4.20;;;25.10;76.50;;;;;;5071609;28;20470;-75
2021/06/20 06:10:16;;;;;;;14.10;4.57;;;25.10;76.40;;;;;;5076250;28;20028;-76
2021/06/20 06:12:42;;;;;;;15.63;4.47;;;25.10;76.30;;;;;;5075218;28;20090;-76
2021/06/20 06:15:08;;;;;;;14.20;3.90;;;25.20;75.50;;;;;;5073027;28;20458;-77
2021/06/20 06:17:34;;;;;;;12.00;4.07;;;25.40;75.70;;;;;;5071968;28;20055;-74
2021/06/20 06:20:00;;;;;;;16.80;4.00;;;25.60;74.00;;;;;;5072998;28;20382;-73
2021/06/20 06:22:26;;;;;;;11.63;4.00;;;25.80;73.90;;;;;;5072306;28;20033;-71
2021/06/20 06:24:53;;;;;;;15.35;3.92;;;26.10;72.90;;;;;;5065427;28;20036;-73
2021/06/20 06:27:19;;;;;;;14.75;3.35;;;26.30;71.20;;;;;;5067431;28;20039;-78
2021/06/20 06:29:44;;;;;;;15.23;3.83;;;26.40;70.40;;;;;;5062516;28;20647;-77
2021/06/20 06:32:10;;;;;;;20.05;4.53;;;26.40;70.00;;;;;;5063446;28;20124;-76
2021/06/20 06:34:39;;;;;;;10.75;3.50;;;26.50;68.90;;;;;;5060125;28;20032;-73
2021/06/20 06:37:05;;;;;;;16.33;4.43;;;26.40;69.70;;;;;;5061807;28;20047;-73
2021/06/20 06:39:32;;;;;;;15.18;4.13;;;26.50;68.90;;;;;;5044232;28;20437;-74
2021/06/20 06:41:59;;;;;;;17.17;5.25;;;26.50;69.10;;;;;;5063043;28;20032;-74
2021/06/20 06:44:26;;;;;;;14.02;3.78;;;26.40;69.50;;;;;;5063807;28;20025;-73
2021/06/20 06:46:52;;;;;;;17.10;3.92;;;26.40;70.00;;;;;;5062604;28;20092;-75
2021/06/20 06:49:18;;;;;;;17.27;5.13;;;26.50;70.00;;;;;;5063801;28;20033;-80
2021/06/20 06:51:43;;;;;;;19.77;5.80;;;26.70;71.70;;;;;;5063216;28;20086;-75
2021/06/20 06:54:09;;;;;;;17.95;6.15;;;26.80;72.90;;;;;;5061954;28;20127;-75
2021/06/20 06:56:35;;;;;;;22.13;6.07;;;26.80;73.90;;;;;;5062741;28;20082;-74
2021/06/20 06:59:01;;;;;;;22.85;7.38;;;26.70;73.30;;;;;;5070048;28;20098;-75
2021/06/20 07:01:28;;;;;;;27.83;8.07;;;26.70;75.20;;;;;;5070923;28;20032;-72
2021/06/20 07:03:53;;;;;;;22.00;7.88;;;26.60;76.70;;;;;;5071590;28;20029;-74
2021/06/20 07:06:19;;;;;;;38.65;15.50;;;26.60;77.90;;;;;;5053914;28;20439;-74
2021/06/20 07:08:46;;;;;;;30.08;7.45;;;26.70;76.80;;;;;;5070776;28;20067;-74
2021/06/20 07:11:12;;;;;;;35.58;7.13;;;26.60;75.60;;;;;;5072032;28;20071;-73
2021/06/20 07:13:38;;;;;;;29.85;7.03;;;26.40;76.00;;;;;;5071024;28;20069;-76
2021/06/20 07:16:04;;;;;;;29.30;10.05;;;26.30;75.60;;;;;;5071875;28;20400;-72
2021/06/20 07:18:30;;;;;;;21.92;6.82;;;26.20;76.90;;;;;;5070618;28;20056;-75
2021/06/20 07:20:56;;;;;;;21.55;7.05;;;26.00;75.90;;;;;;5071825;28;20036;-71
2021/06/20 07:23:22;;;;;;;19.33;6.63;;;26.00;76.30;;;;;;5071931;28;20182;-78
2021/06/20 07:25:48;;;;;;;17.63;6.32;;;26.00;76.50;;;;;;5070629;28;20095;-74
2021/06/20 07:28:13;;;;;;;20.13;6.07;;;26.00;76.20;;;;;;5071579;28;20036;-74
2021/06/20 07:30:39;;;;;;;18.15;6.40;;;26.00;75.90;;;;;;5065522;28;20035;-73
2021/06/20 07:33:05;;;;;;;20.83;6.35;;;26.20;76.30;;;;;;5071684;28;20040;-73
2021/06/20 07:35:31;;;;;;;25.85;6.47;;;26.20;77.10;;;;;;5072620;28;20025;-70
2021/06/20 07:37:57;;;;;;;27.27;6.45;;;26.20;76.70;;;;;;5071395;28;20529;-69
2021/06/20 07:40:23;;;;;;;17.15;6.38;;;26.30;76.50;;;;;;5071267;28;20103;-71
2021/06/20 07:42:48;;;;;;;19.92;6.97;;;26.30;75.90;;;;;;5065490;28;20469;-69
2021/06/20 07:45:16;;;;;;;15.48;5.78;;;26.30;76.00;;;;;;5046903;28;20118;-69
2021/06/20 07:47:42;;;;;;;23.08;6.93;;;26.30;75.60;;;;;;5070594;28;20044;-68
2021/06/20 07:50:10;;;;;;;18.27;5.70;;;26.20;76.40;;;;;;5070708;28;20036;-70
2021/06/20 07:52:37;;;;;;;17.05;6.35;;;26.10;76.30;;;;;;5069955;28;20029;-69
2021/06/20 07:55:04;;;;;;;17.65;6.28;;;26.10;76.90;;;;;;5064189;28;20033;-69
2021/06/20 07:57:29;;;;;;;17.42;6.05;;;26.00;77.00;;;;;;5070252;28;20029;-68
2021/06/20 07:59:55;;;;;;;24.38;6.80;;;25.90;77.30;;;;;;5067645;28;20436;-67
2021/06/20 08:02:21;;;;;;;17.55;6.40;;;25.90;77.40;;;;;;5071244;28;20039;-66
2021/06/20 08:04:47;;;;;;;18.35;5.90;;;25.80;77.90;;;;;;5071415;28;20024;-66
2021/06/20 08:07:13;;;;;;;23.23;6.53;;;25.70;78.30;;;;;;5068336;28;20021;-66
2021/06/20 08:09:39;;;;;;;22.30;5.80;;;25.50;78.60;;;;;;5071147;28;20450;-66
2021/06/20 08:12:08;;;;;;;24.30;5.88;;;25.50;78.60;;;;;;5071260;28;20040;-67
2021/06/20 08:14:34;;;;;;;20.42;5.72;;;25.60;78.40;;;;;;5074291;28;20025;-67
2021/06/20 08:16:59;;;;;;;21.15;6.35;;;25.70;77.80;;;;;;5077874;28;20043;-66
2021/06/20 08:19:25;;;;;;;23.38;6.63;;;25.70;78.20;;;;;;5056104;28;20379;-67
2021/06/20 08:21:51;;;;;;;16.35;5.85;;;25.70;77.50;;;;;;5074503;28;20035;-66
2021/06/20 08:24:17;;;;;;;17.42;5.38;;;25.70;78.20;;;;;;5071656;28;20466;-68
2021/06/20 08:26:45;;;;;;;17.77;5.80;;;25.80;77.40;;;;;;5069200;28;20036;-67
2021/06/20 08:29:10;;;;;;;20.27;6.38;;;25.90;77.20;;;;;;5067925;28;20074;-67
2021/06/20 08:31:36;;;;;;;17.60;5.47;;;26.00;76.90;;;;;;5068431;28;20049;-67
2021/06/20 08:34:03;;;;;;;15.38;5.53;;;26.00;76.80;;;;;;5068662;28;20466;-68
2021/06/20 08:36:28;;;;;;;16.83;5.32;;;26.10;77.20;;;;;;5068104;28;20431;-70
2021/06/20 08:38:55;;;;;;;23.85;6.20;;;26.10;76.50;;;;;;5068745;28;20044;-68
2021/06/20 08:41:22;;;;;;;14.80;5.75;;;26.10;75.80;;;;;;5069956;28;20035;-67
2021/06/20 08:43:49;;;;;;;20.08;5.80;;;26.10;76.60;;;;;;5065955;28;20029;-67
2021/06/20 08:46:15;;;;;;;16.40;5.55;;;26.20;76.00;;;;;;5071957;28;20043;-67
2021/06/20 08:48:41;;;;;;;14.85;5.43;;;26.20;75.60;;;;;;5070066;28;20036;-67
2021/06/20 08:51:07;;;;;;;14.02;5.00;;;26.30;75.40;;;;;;5070292;28;20055;-66
2021/06/20 08:53:33;;;;;;;17.15;5.78;;;26.30;75.40;;;;;;5067798;28;20051;-69
2021/06/20 08:55:59;;;;;;;16.85;5.18;;;26.30;75.60;;;;;;5068174;28;20451;-70
2021/06/20 08:58:27;;;;;;;14.45;5.60;;;26.40;75.00;;;;;;5067820;28;20427;-70
2021/06/20 09:00:54;;;;;;;18.25;5.85;;;26.50;74.30;;;;;;5064443;28;20029;-70
2021/06/20 09:03:20;;;;;;;20.42;5.85;;;26.50;74.20;;;;;;5067966;28;20055;-67
2021/06/20 09:06:04;;;;;;;14.80;5.53;;;26.60;74.10;;;;;;5073336;28;20086;-68
2021/06/20 09:08:30;;;;;;;17.10;6.05;;;26.60;73.60;;;;;;5072299;28;20033;-73
2021/06/20 09:10:57;;;;;;;13.77;6.07;;;26.60;74.30;;;;;;5077599;28;20102;-77
2021/06/20 09:13:31;;;;;;;22.17;6.00;;;26.70;74.40;;;;;;5076835;28;20028;-74
2021/06/20 09:16:00;;;;;;;16.00;5.13;;;26.70;73.70;;;;;;5070749;28;20021;-76
2021/06/20 09:18:26;;;;;;;11.18;4.88;;;26.70;74.00;;;;;;5060428;28;20028;-79
2021/06/20 09:20:52;;;;;;;14.90;5.22;;;26.70;73.60;;;;;;5076639;28;20112;-75
2021/06/20 09:23:18;;;;;;;17.52;5.20;;;26.80;73.80;;;;;;5077184;28;20355;-73
2021/06/20 09:25:57;;;;;;;17.88;4.95;;;26.90;73.40;;;;;;5075020;28;20039;-68
2021/06/20 09:28:33;;;;;;;17.88;4.97;;;27.00;73.70;;;;;;5074383;28;20047;-68
2021/06/20 09:31:01;;;;;;;15.02;4.95;;;27.20;72.30;;;;;;5066849;28;20052;-70
2021/06/20 09:33:31;;;;;;;18.70;5.05;;;27.20;72.40;;;;;;5074492;28;20359;-72
2021/06/20 09:35:57;;;;;;;12.52;5.40;;;27.20;71.70;;;;;;5065564;28;20064;-73
2021/06/20 09:38:34;;;;;;;17.92;5.53;;;27.20;72.00;;;;;;5073913;28;20082;-72
2021/06/20 09:41:11;;;;;;;18.67;5.55;;;27.30;72.00;;;;;;5074093;28;20020;-72
2021/06/20 09:43:49;;;;;;;14.88;4.90;;;27.40;70.80;;;;;;5055193;28;20059;-72
2021/06/20 09:46:15;;;;;;;13.32;5.10;;;27.50;70.10;;;;;;5073458;28;20477;-72
2021/06/20 09:48:41;;;;;;;19.42;5.90;;;27.60;70.60;;;;;;5072757;28;20032;-73
2021/06/20 09:51:19;;;;;;;23.80;5.00;;;27.70;69.80;;;;;;5073933;28;20149;-72
2021/06/20 09:53:47;;;;;;;20.02;5.45;;;27.90;69.60;;;;;;5072403;28;20056;-72
2021/06/20 09:56:20;;;;;;;17.10;4.78;;;28.10;68.90;;;;;;5074091;28;20029;-72
2021/06/20 09:59:04;;;;;;;20.70;5.22;;;28.30;68.10;;;;;;5072620;28;20028;-72
2021/06/20 10:01:33;;;;;;;18.90;4.95;;;28.40;67.50;;;;;;5064837;28;20107;-72
2021/06/20 10:03:59;;;;;;;20.15;5.25;;;28.40;67.10;;;;;;5073900;28;20028;-72
2021/06/20 10:06:25;;;;;;;17.60;5.03;;;28.50;66.90;;;;;;5074186;28;20025;-72
2021/06/20 10:08:51;;;;;;;21.17;5.00;;;28.50;66.30;;;;;;5072548;28;20068;-72
2021/06/20 10:11:17;;;;;;;24.63;5.55;;;28.50;66.60;;;;;;5073086;28;20059;-71
2021/06/20 10:13:44;;;;;;;13.57;4.70;;;28.50;66.90;;;;;;5072265;28;20505;-72
2021/06/20 10:16:20;;;;;;;17.85;5.35;;;28.50;65.90;;;;;;5073050;28;20461;-72
2021/06/20 10:18:58;;;;;;;9.63;4.28;;;28.40;66.00;;;;;;5072155;28;20040;-73
2021/06/20 10:21:37;;;;;;;10.80;4.07;;;28.20;65.60;;;;;;5073516;28;20032;-73
2021/06/20 10:24:09;;;;;;;18.10;4.15;;;28.10;64.80;;;;;;5071097;28;20024;-73
2021/06/20 10:26:36;;;;;;;11.23;3.30;;;28.00;64.70;;;;;;5070306;28;20029;-73
2021/06/20 10:29:14;;;;;;;14.02;4.15;;;28.00;63.50;;;;;;5072841;28;20382;-74
2021/06/20 10:31:39;;;;;;;14.90;4.53;;;28.00;63.80;;;;;;5071984;28;20115;-74
2021/06/20 10:34:25;;;;;;;11.48;3.40;;;28.10;63.80;;;;;;5072004;28;20111;-74
2021/06/20 10:36:54;;;;;;;14.55;4.40;;;28.00;63.20;;;;;;5071756;28;20465;-73
2021/06/20 10:39:21;;;;;;;12.03;4.37;;;28.00;64.10;;;;;;5054487;28;20078;-80
2021/06/20 10:41:47;;;;;;;15.10;4.10;;;28.00;63.90;;;;;;5072693;28;20382;-79
2021/06/20 10:44:13;;;;;;;10.25;3.85;;;28.10;64.40;;;;;;5074002;28;20025;-82
2021/06/20 10:46:41;;;;;;;17.73;3.70;;;28.10;63.80;;;;;;5069928;28;20032;-77
2021/06/20 10:49:18;;;;;;;10.57;3.42;;;28.20;64.00;;;;;;5046728;28;20366;-78
2021/06/20 10:51:44;;;;;;;15.77;3.70;;;28.30;62.20;;;;;;5072357;28;20033;-72
2021/06/20 10:54:27;;;;;;;12.32;3.30;;;28.40;61.60;;;;;;5072103;28;20048;-74
2021/06/20 10:57:02;;;;;;;12.35;3.53;;;28.50;61.80;;;;;;5071288;28;20813;-75
2021/06/20 10:59:27;;;;;;;14.88;3.78;;;28.60;61.50;;;;;;5071691;28;20470;-73
2021/06/20 11:01:53;;;;;;;11.30;3.60;;;28.70;60.50;;;;;;5047441;28;20025;-73
2021/06/20 11:04:19;;;;;;;17.27;3.55;;;28.80;60.80;;;;;;5072081;28;20035;-77
2021/06/20 11:06:57;;;;;;;11.05;2.95;;;29.10;58.50;;;;;;5072630;28;20024;-72
2021/06/20 11:09:34;;;;;;;9.75;2.90;;;29.40;58.90;;;;;;5065719;28;20033;-74
2021/06/20 11:12:05;;;;;;;15.02;3.20;;;29.50;57.80;;;;;;5071811;28;20056;-72
2021/06/20 11:14:44;;;;;;;7.00;2.58;;;29.60;55.60;;;;;;5054013;28;20462;-74
2021/06/20 11:17:10;;;;;;;9.82;2.67;;;29.80;56.50;;;;;;5072046;28;20040;-71
2021/06/20 11:19:36;;;;;;;12.82;2.58;;;29.90;55.80;;;;;;5070552;28;20032;-72
2021/06/20 11:22:05;;;;;;;14.02;2.78;;;30.20;55.40;;;;;;5071877;28;20035;-71
2021/06/20 11:24:41;;;;;;;12.18;3.47;;;30.40;55.20;;;;;;5071315;28;20643;-75
2021/06/20 11:27:09;;;;;;;9.52;2.53;;;30.50;54.50;;;;;;5071718;28;20033;-71
2021/06/20 11:29:44;;;;;;;10.57;3.13;;;30.60;54.80;;;;;;5070737;28;20032;-77
2021/06/20 11:32:24;;;;;;;8.73;3.08;;;30.70;54.40;;;;;;5071299;28;20025;-74
2021/06/20 11:35:02;;;;;;;14.10;3.17;;;30.80;54.00;;;;;;5071282;28;20024;-75
2021/06/20 11:37:31;;;;;;;7.60;3.45;;;30.80;54.30;;;;;;5074366;28;20034;-74
2021/06/20 11:39:59;;;;;;;7.40;2.90;;;30.60;54.80;;;;;;5072533;28;20060;-71
2021/06/20 11:42:30;;;;;;;12.30;3.20;;;30.60;54.90;;;;;;5071707;28;20107;-73
2021/06/20 11:45:03;;;;;;;10.38;3.35;;;30.70;54.40;;;;;;5070752;28;20055;-72
2021/06/20 11:47:30;;;;;;;11.90;3.60;;;30.90;54.50;;;;;;5053367;28;20056;-72
2021/06/20 11:49:56;;;;;;;11.40;3.05;;;30.90;53.80;;;;;;5069887;28;20052;-74
2021/06/20 11:52:23;;;;;;;14.00;3.45;;;31.00;53.90;;;;;;5071578;28;20081;-73
2021/06/20 11:54:49;;;;;;;8.60;2.80;;;31.10;53.80;;;;;;5070537;28;20060;-72
2021/06/20 11:57:14;;;;;;;9.15;3.45;;;31.30;53.80;;;;;;5070776;28;20056;-73
2021/06/20 11:59:40;;;;;;;16.92;3.35;;;31.30;52.90;;;;;;5069771;28;20033;-74
2021/06/20 12:02:11;;;;;;;12.68;3.78;;;31.30;52.90;;;;;;5071124;28;20025;-73
2021/06/20 12:04:42;;;;;;;14.35;4.22;;;31.40;53.80;;;;;;5070721;28;20020;-73
2021/06/20 12:07:08;;;;;;;12.52;3.40;;;31.40;52.10;;;;;;5071105;28;20031;-73
2021/06/20 12:09:35;;;;;;;15.05;3.65;;;31.40;53.50;;;;;;5071251;28;20046;-78
2021/06/20 12:12:04;;;;;;;14.57;3.53;;;31.60;52.60;;;;;;5071450;28;20024;-72
2021/06/20 12:14:31;;;;;;;10.63;4.10;;;31.80;51.60;;;;;;5071206;28;20104;-73
2021/06/20 12:16:57;;;;;;;14.45;3.95;;;32.10;51.50;;;;;;5062866;28;20029;-71
2021/06/20 12:19:27;;;;;;;20.48;3.80;;;32.10;51.10;;;;;;5070942;28;20035;-72
2021/06/20 12:22:14;;;;;;;16.67;4.35;;;32.20;50.00;;;;;;5069949;28;20187;-72
2021/06/20 12:24:41;;;;;;;22.17;4.57;;;32.20;49.10;;;;;;5064185;28;20039;-72
2021/06/20 12:27:08;;;;;;;15.30;3.70;;;32.10;50.70;;;;;;5070844;28;20077;-70
2021/06/20 12:29:34;;;;;;;12.35;3.33;;;32.10;49.50;;;;;;5070730;28;20029;-74
2021/06/20 12:32:06;;;;;;;19.75;4.30;;;32.20;50.30;;;;;;5070387;28;20127;-73
2021/06/20 12:34:44;;;;;;;17.63;3.85;;;32.10;50.10;;;;;;5070919;28;20028;-71
2021/06/20 12:37:10;;;;;;;15.00;4.22;;;32.20;50.30;;;;;;5070996;28;20071;-71
2021/06/20 12:39:54;;;;;;;16.38;3.72;;;32.50;49.80;;;;;;5069455;28;20028;-74